Brodhead, KY (40409)

12:11 PM EST del 16 Gennaio 2017 (GMT -0500)
Green Fish Hill | | Change Station

Alt. 1214 ft 37.42 °N, 84.33 °W | Updated 7 minutes ago

Coperto
Coperto
57.0 °F
Sembra 57.0 °F
N
3.1
Vento Variabile Vento da Sud
Gusts 6.0 mph

Oggi
Massima -- | Minima -- °F
--% Possibilità di precip.
Ieri
Massima -- | Minima -- °F
Precip. -- in
Pressione 30.26 in
Visibilità 10.0 miglia
Nuvole Nubi sparse 5000 ft
Nubi sparse 6000 ft
Coperto 8000 ft
Punto di rugiada 57 °F
Umidità 99%
Piovosità 0.00 in
Spessore del manto nevoso Non disponibile.
7:50 AM 5:44 PM
Gobba a levante, 80% visible
METAR KDVK 161655Z AUTO 21004KT 10SM SCT050 SCT060 OVC080 10/10 A3026 RMK AO2
Pressione 30.26 in
Visibilità 10.0 miglia
Nuvole Nubi sparse 5000 ft
Nubi sparse 6000 ft
Coperto 8000 ft
Punto di rugiada 57 °F
Umidità 99%
Piovosità 0.00 in
Spessore del manto nevoso Non disponibile.
7:50 AM 5:44 PM
Gobba a levante, 80% visible
METAR KDVK 161655Z AUTO 21004KT 10SM SCT050 SCT060 OVC080 10/10 A3026 RMK AO2

Get Your Daily Forecast Email!

Thanks for signing up!

Be on the lookout for a verification email in your inbox.

You'll start receiving the daily forecast at 8 AM.

×

10-Day Weather Forecast

Almanac

Astronomia

Jan. 16, 2017 Alba Tramonto
Ora attuale
Crepuscolo civile
Crepuscolo nautico
Crepuscolo astronomico
Luna
Estensione della luce visibile
Lunghezza del giorno
Tomorrow will be .
, % of the Moon is Illuminated

Gli estremi di oggi

State Highs State Lows

Community

WunderPhotos

Upload Photos

1,962,540 foto caricate!

WunderBlog® & News

Nearby

Qualità dell'aria

  Qualità dell'aria Indice AQ Inquinante
Not available.

Profondità neve

Stazione Profondità Altitudine

Attività sismica

Città  Distanza Mag. Data & Ora
Minimo Magnitudo Mostrato è 2.5.

Temperature delle acque costiere

Località Temperatura

Stations

Stazioni meteo nelle vicinanze

Ubicazione della stazione Temp. Raffreddamento del vento Punto di rugiada Umidità Vento Precip. Alt. Aggiornato Tipo
                   

Watches & Warnings

There are currently no watches in effect.